sensor_id;sensor_type;location;lat;lon;timestamp;P1;durP1;ratioP1;P2;durP2;ratioP2
18726;SDS011;9492;51.888;5.186;2022-12-31T00:02:28;0.97;;;0.87;;
18726;SDS011;9492;51.888;5.186;2022-12-31T00:04:54;1.43;;;0.70;;
18726;SDS011;9492;51.888;5.186;2022-12-31T00:07:25;1.40;;;0.73;;
18726;SDS011;9492;51.888;5.186;2022-12-31T00:09:55;0.60;;;0.60;;
18726;SDS011;9492;51.888;5.186;2022-12-31T00:12:27;0.80;;;0.80;;
18726;SDS011;9492;51.888;5.186;2022-12-31T00:17:42;1.20;;;1.10;;
18726;SDS011;9492;51.888;5.186;2022-12-31T00:23:15;1.47;;;0.93;;
18726;SDS011;9492;51.888;5.186;2022-12-31T00:25:44;1.40;;;1.23;;
18726;SDS011;9492;51.888;5.186;2022-12-31T00:28:15;1.40;;;1.03;;
18726;SDS011;9492;51.888;5.186;2022-12-31T00:30:41;1.30;;;0.90;;
18726;SDS011;9492;51.888;5.186;2022-12-31T00:33:16;1.00;;;0.90;;
18726;SDS011;9492;51.888;5.186;2022-12-31T00:35:42;0.70;;;0.70;;
18726;SDS011;9492;51.888;5.186;2022-12-31T00:40:49;1.43;;;1.00;;
18726;SDS011;9492;51.888;5.186;2022-12-31T00:43:21;1.47;;;1.10;;
18726;SDS011;9492;51.888;5.186;2022-12-31T00:45:48;4.23;;;1.20;;
18726;SDS011;9492;51.888;5.186;2022-12-31T00:48:25;1.03;;;0.90;;
18726;SDS011;9492;51.888;5.186;2022-12-31T00:51:01;1.23;;;1.13;;
18726;SDS011;9492;51.888;5.186;2022-12-31T00:58:57;1.43;;;0.67;;
18726;SDS011;9492;51.888;5.186;2022-12-31T01:01:31;1.00;;;0.90;;
18726;SDS011;9492;51.888;5.186;2022-12-31T01:04:00;1.87;;;0.80;;
18726;SDS011;9492;51.888;5.186;2022-12-31T01:06:46;1.63;;;0.90;;
18726;SDS011;9492;51.888;5.186;2022-12-31T01:15:11;1.53;;;0.70;;
18726;SDS011;9492;51.888;5.186;2022-12-31T01:17:37;1.00;;;0.77;;
18726;SDS011;9492;51.888;5.186;2022-12-31T01:20:03;1.47;;;0.70;;
18726;SDS011;9492;51.888;5.186;2022-12-31T01:22:29;2.57;;;0.90;;
18726;SDS011;9492;51.888;5.186;2022-12-31T01:24:56;1.00;;;0.80;;
18726;SDS011;9492;51.888;5.186;2022-12-31T01:27:26;0.90;;;0.70;;
18726;SDS011;9492;51.888;5.186;2022-12-31T01:29:53;0.87;;;0.60;;
18726;SDS011;9492;51.888;5.186;2022-12-31T01:32:22;2.27;;;0.70;;
18726;SDS011;9492;51.888;5.186;2022-12-31T01:34:59;1.00;;;0.70;;
18726;SDS011;9492;51.888;5.186;2022-12-31T01:37:27;1.37;;;0.87;;
18726;SDS011;9492;51.888;5.186;2022-12-31T01:45:23;1.23;;;0.83;;
18726;SDS011;9492;51.888;5.186;2022-12-31T01:47:50;1.53;;;0.77;;
18726;SDS011;9492;51.888;5.186;2022-12-31T01:53:17;1.10;;;0.97;;
18726;SDS011;9492;51.888;5.186;2022-12-31T01:55:49;1.57;;;0.60;;
18726;SDS011;9492;51.888;5.186;2022-12-31T01:58:22;0.77;;;0.70;;
18726;SDS011;9492;51.888;5.186;2022-12-31T02:00:52;0.50;;;0.50;;
18726;SDS011;9492;51.888;5.186;2022-12-31T02:03:33;0.60;;;0.60;;
18726;SDS011;9492;51.888;5.186;2022-12-31T02:06:16;0.87;;;0.73;;
18726;SDS011;9492;51.888;5.186;2022-12-31T02:08:43;1.27;;;0.60;;
18726;SDS011;9492;51.888;5.186;2022-12-31T02:13:54;1.07;;;0.90;;
18726;SDS011;9492;51.888;5.186;2022-12-31T02:19:04;0.80;;;0.70;;
18726;SDS011;9492;51.888;5.186;2022-12-31T02:35:12;1.57;;;0.87;;
18726;SDS011;9492;51.888;5.186;2022-12-31T02:37:40;0.60;;;0.60;;
18726;SDS011;9492;51.888;5.186;2022-12-31T02:40:08;2.50;;;0.73;;
18726;SDS011;9492;51.888;5.186;2022-12-31T02:42:34;3.07;;;1.00;;
18726;SDS011;9492;51.888;5.186;2022-12-31T02:45:00;0.97;;;0.90;;
18726;SDS011;9492;51.888;5.186;2022-12-31T02:47:30;1.20;;;0.70;;
18726;SDS011;9492;51.888;5.186;2022-12-31T03:00:48;1.37;;;1.10;;
18726;SDS011;9492;51.888;5.186;2022-12-31T03:03:33;1.67;;;1.13;;
18726;SDS011;9492;51.888;5.186;2022-12-31T03:06:00;3.40;;;1.40;;
18726;SDS011;9492;51.888;5.186;2022-12-31T03:08:27;2.10;;;1.83;;
18726;SDS011;9492;51.888;5.186;2022-12-31T03:10:54;2.77;;;1.90;;
18726;SDS011;9492;51.888;5.186;2022-12-31T03:13:21;4.90;;;2.57;;
18726;SDS011;9492;51.888;5.186;2022-12-31T03:15:49;3.63;;;2.60;;
18726;SDS011;9492;51.888;5.186;2022-12-31T03:18:21;2.40;;;1.50;;
18726;SDS011;9492;51.888;5.186;2022-12-31T03:24:08;1.00;;;0.70;;
18726;SDS011;9492;51.888;5.186;2022-12-31T03:32:12;1.13;;;0.87;;
18726;SDS011;9492;51.888;5.186;2022-12-31T03:34:49;0.97;;;0.77;;
18726;SDS011;9492;51.888;5.186;2022-12-31T03:37:15;1.17;;;0.70;;
18726;SDS011;9492;51.888;5.186;2022-12-31T03:39:41;0.77;;;0.63;;
18726;SDS011;9492;51.888;5.186;2022-12-31T03:44:53;1.50;;;0.50;;
18726;SDS011;9492;51.888;5.186;2022-12-31T03:47:19;2.40;;;0.80;;
18726;SDS011;9492;51.888;5.186;2022-12-31T03:49:45;0.90;;;0.63;;
18726;SDS011;9492;51.888;5.186;2022-12-31T03:52:26;1.27;;;0.80;;
18726;SDS011;9492;51.888;5.186;2022-12-31T03:54:54;1.50;;;0.60;;
18726;SDS011;9492;51.888;5.186;2022-12-31T03:57:29;1.73;;;0.77;;
18726;SDS011;9492;51.888;5.186;2022-12-31T03:59:55;2.40;;;0.80;;
18726;SDS011;9492;51.888;5.186;2022-12-31T04:02:28;0.90;;;0.70;;
18726;SDS011;9492;51.888;5.186;2022-12-31T04:04:54;1.03;;;0.60;;
18726;SDS011;9492;51.888;5.186;2022-12-31T04:07:21;3.30;;;1.43;;
18726;SDS011;9492;51.888;5.186;2022-12-31T04:09:47;0.70;;;0.70;;
18726;SDS011;9492;51.888;5.186;2022-12-31T04:12:14;2.00;;;1.00;;
18726;SDS011;9492;51.888;5.186;2022-12-31T04:14:40;1.50;;;1.03;;
18726;SDS011;9492;51.888;5.186;2022-12-31T04:17:06;1.50;;;1.10;;
18726;SDS011;9492;51.888;5.186;2022-12-31T04:19:37;2.10;;;0.90;;
18726;SDS011;9492;51.888;5.186;2022-12-31T04:22:03;1.33;;;1.00;;
18726;SDS011;9492;51.888;5.186;2022-12-31T04:24:30;1.37;;;1.27;;
18726;SDS011;9492;51.888;5.186;2022-12-31T04:27:13;2.00;;;1.30;;
18726;SDS011;9492;51.888;5.186;2022-12-31T04:32:08;1.93;;;1.83;;
18726;SDS011;9492;51.888;5.186;2022-12-31T04:37:24;2.53;;;2.33;;
18726;SDS011;9492;51.888;5.186;2022-12-31T04:40:01;2.73;;;2.53;;
18726;SDS011;9492;51.888;5.186;2022-12-31T04:42:27;2.30;;;2.10;;
18726;SDS011;9492;51.888;5.186;2022-12-31T04:47:47;1.70;;;1.60;;
18726;SDS011;9492;51.888;5.186;2022-12-31T04:50:19;1.67;;;1.57;;
18726;SDS011;9492;51.888;5.186;2022-12-31T04:52:45;1.63;;;1.53;;
18726;SDS011;9492;51.888;5.186;2022-12-31T04:55:11;1.63;;;1.53;;
18726;SDS011;9492;51.888;5.186;2022-12-31T05:03:00;1.17;;;1.17;;
18726;SDS011;9492;51.888;5.186;2022-12-31T05:05:41;1.27;;;1.00;;
18726;SDS011;9492;51.888;5.186;2022-12-31T05:08:09;1.30;;;1.30;;
18726;SDS011;9492;51.888;5.186;2022-12-31T05:10:35;1.00;;;1.00;;
18726;SDS011;9492;51.888;5.186;2022-12-31T05:13:01;1.40;;;1.30;;
18726;SDS011;9492;51.888;5.186;2022-12-31T05:15:28;1.47;;;1.37;;
18726;SDS011;9492;51.888;5.186;2022-12-31T05:18:10;1.80;;;1.70;;
18726;SDS011;9492;51.888;5.186;2022-12-31T05:20:42;1.20;;;1.10;;
18726;SDS011;9492;51.888;5.186;2022-12-31T05:23:11;1.13;;;1.13;;
18726;SDS011;9492;51.888;5.186;2022-12-31T05:25:45;1.33;;;1.23;;
18726;SDS011;9492;51.888;5.186;2022-12-31T05:28:18;1.10;;;1.10;;
18726;SDS011;9492;51.888;5.186;2022-12-31T05:30:49;1.50;;;1.40;;
18726;SDS011;9492;51.888;5.186;2022-12-31T05:39:00;1.50;;;1.40;;
18726;SDS011;9492;51.888;5.186;2022-12-31T05:44:24;1.90;;;1.70;;
18726;SDS011;9492;51.888;5.186;2022-12-31T05:46:50;1.43;;;1.30;;
18726;SDS011;9492;51.888;5.186;2022-12-31T05:49:16;1.97;;;1.47;;
18726;SDS011;9492;51.888;5.186;2022-12-31T05:51:43;2.83;;;1.93;;
18726;SDS011;9492;51.888;5.186;2022-12-31T05:57:08;1.40;;;1.30;;
18726;SDS011;9492;51.888;5.186;2022-12-31T05:59:34;1.07;;;1.07;;
18726;SDS011;9492;51.888;5.186;2022-12-31T06:02:01;2.20;;;1.30;;
18726;SDS011;9492;51.888;5.186;2022-12-31T06:04:30;1.23;;;1.13;;
18726;SDS011;9492;51.888;5.186;2022-12-31T06:06:56;1.20;;;1.10;;
18726;SDS011;9492;51.888;5.186;2022-12-31T06:09:23;1.33;;;1.23;;
18726;SDS011;9492;51.888;5.186;2022-12-31T06:11:50;1.77;;;1.67;;
18726;SDS011;9492;51.888;5.186;2022-12-31T06:14:16;1.13;;;1.07;;
18726;SDS011;9492;51.888;5.186;2022-12-31T06:16:42;1.40;;;1.30;;
18726;SDS011;9492;51.888;5.186;2022-12-31T06:19:08;1.70;;;1.60;;
18726;SDS011;9492;51.888;5.186;2022-12-31T06:21:37;2.03;;;1.90;;
18726;SDS011;9492;51.888;5.186;2022-12-31T06:24:03;1.80;;;1.70;;
18726;SDS011;9492;51.888;5.186;2022-12-31T06:26:30;1.90;;;1.80;;
18726;SDS011;9492;51.888;5.186;2022-12-31T06:28:56;1.80;;;1.70;;
18726;SDS011;9492;51.888;5.186;2022-12-31T06:31:22;1.83;;;1.73;;
18726;SDS011;9492;51.888;5.186;2022-12-31T06:33:48;2.07;;;1.93;;
18726;SDS011;9492;51.888;5.186;2022-12-31T06:36:15;2.30;;;2.10;;
18726;SDS011;9492;51.888;5.186;2022-12-31T06:38:41;2.30;;;2.10;;
18726;SDS011;9492;51.888;5.186;2022-12-31T06:41:09;1.90;;;1.80;;
18726;SDS011;9492;51.888;5.186;2022-12-31T06:43:35;1.97;;;1.87;;
18726;SDS011;9492;51.888;5.186;2022-12-31T06:46:02;1.73;;;1.63;;
18726;SDS011;9492;51.888;5.186;2022-12-31T06:48:35;1.30;;;1.20;;
18726;SDS011;9492;51.888;5.186;2022-12-31T06:54:04;0.80;;;0.80;;
18726;SDS011;9492;51.888;5.186;2022-12-31T06:56:30;1.23;;;0.90;;
18726;SDS011;9492;51.888;5.186;2022-12-31T06:59:02;0.70;;;0.70;;
18726;SDS011;9492;51.888;5.186;2022-12-31T07:06:47;3.57;;;0.77;;
18726;SDS011;9492;51.888;5.186;2022-12-31T07:20:13;1.07;;;0.80;;
18726;SDS011;9492;51.888;5.186;2022-12-31T07:22:42;0.83;;;0.83;;
18726;SDS011;9492;51.888;5.186;2022-12-31T07:25:11;0.80;;;0.80;;
18726;SDS011;9492;51.888;5.186;2022-12-31T07:41:03;2.50;;;1.00;;
18726;SDS011;9492;51.888;5.186;2022-12-31T07:43:37;2.77;;;1.10;;
18726;SDS011;9492;51.888;5.186;2022-12-31T07:46:10;1.43;;;0.60;;
18726;SDS011;9492;51.888;5.186;2022-12-31T07:48:40;0.83;;;0.50;;
18726;SDS011;9492;51.888;5.186;2022-12-31T07:51:09;0.60;;;0.33;;
18726;SDS011;9492;51.888;5.186;2022-12-31T07:53:36;0.50;;;0.50;;
18726;SDS011;9492;51.888;5.186;2022-12-31T07:56:03;0.43;;;0.43;;
18726;SDS011;9492;51.888;5.186;2022-12-31T08:01:07;1.83;;;0.60;;
18726;SDS011;9492;51.888;5.186;2022-12-31T08:03:40;1.60;;;0.57;;
18726;SDS011;9492;51.888;5.186;2022-12-31T08:06:15;0.40;;;0.40;;
18726;SDS011;9492;51.888;5.186;2022-12-31T08:13:40;2.30;;;0.70;;
18726;SDS011;9492;51.888;5.186;2022-12-31T08:16:08;2.80;;;0.80;;
18726;SDS011;9492;51.888;5.186;2022-12-31T08:18:35;1.43;;;0.73;;
18726;SDS011;9492;51.888;5.186;2022-12-31T08:21:13;3.90;;;0.77;;
18726;SDS011;9492;51.888;5.186;2022-12-31T08:23:53;2.10;;;0.60;;
18726;SDS011;9492;51.888;5.186;2022-12-31T08:34:34;1.03;;;0.60;;
18726;SDS011;9492;51.888;5.186;2022-12-31T08:37:07;0.67;;;0.50;;
18726;SDS011;9492;51.888;5.186;2022-12-31T08:39:44;0.97;;;0.40;;
18726;SDS011;9492;51.888;5.186;2022-12-31T08:42:18;2.07;;;0.47;;
18726;SDS011;9492;51.888;5.186;2022-12-31T08:44:49;1.40;;;0.70;;
18726;SDS011;9492;51.888;5.186;2022-12-31T08:50:03;0.60;;;0.50;;
18726;SDS011;9492;51.888;5.186;2022-12-31T08:52:37;0.40;;;0.40;;
18726;SDS011;9492;51.888;5.186;2022-12-31T09:00:43;0.60;;;0.60;;
18726;SDS011;9492;51.888;5.186;2022-12-31T09:06:00;1.20;;;0.63;;
18726;SDS011;9492;51.888;5.186;2022-12-31T09:14:09;1.13;;;0.63;;
18726;SDS011;9492;51.888;5.186;2022-12-31T09:19:07;1.77;;;0.90;;
18726;SDS011;9492;51.888;5.186;2022-12-31T09:21:34;1.90;;;0.77;;
18726;SDS011;9492;51.888;5.186;2022-12-31T09:24:02;2.77;;;1.10;;
18726;SDS011;9492;51.888;5.186;2022-12-31T09:32:07;3.27;;;1.00;;
18726;SDS011;9492;51.888;5.186;2022-12-31T09:39:59;3.63;;;1.37;;
18726;SDS011;9492;51.888;5.186;2022-12-31T09:45:14;2.47;;;1.07;;
18726;SDS011;9492;51.888;5.186;2022-12-31T09:55:35;2.07;;;0.90;;
18726;SDS011;9492;51.888;5.186;2022-12-31T10:01:11;1.50;;;0.67;;
18726;SDS011;9492;51.888;5.186;2022-12-31T10:19:24;1.53;;;0.93;;
18726;SDS011;9492;51.888;5.186;2022-12-31T10:24:33;1.67;;;0.77;;
18726;SDS011;9492;51.888;5.186;2022-12-31T10:27:19;1.23;;;1.07;;
18726;SDS011;9492;51.888;5.186;2022-12-31T10:34:52;2.70;;;0.83;;
18726;SDS011;9492;51.888;5.186;2022-12-31T10:37:23;3.50;;;1.10;;
18726;SDS011;9492;51.888;5.186;2022-12-31T11:01:22;5.43;;;1.53;;
18726;SDS011;9492;51.888;5.186;2022-12-31T11:06:30;1.93;;;1.30;;
18726;SDS011;9492;51.888;5.186;2022-12-31T11:11:44;2.90;;;1.27;;
18726;SDS011;9492;51.888;5.186;2022-12-31T11:19:56;5.83;;;3.07;;
18726;SDS011;9492;51.888;5.186;2022-12-31T11:33:20;2.87;;;1.17;;
18726;SDS011;9492;51.888;5.186;2022-12-31T11:38:32;5.53;;;1.63;;
18726;SDS011;9492;51.888;5.186;2022-12-31T11:44:15;3.17;;;1.20;;
18726;SDS011;9492;51.888;5.186;2022-12-31T11:46:56;4.27;;;1.57;;
18726;SDS011;9492;51.888;5.186;2022-12-31T11:49:27;2.77;;;1.10;;
18726;SDS011;9492;51.888;5.186;2022-12-31T11:54:36;4.93;;;1.93;;
18726;SDS011;9492;51.888;5.186;2022-12-31T11:57:16;5.33;;;1.70;;
18726;SDS011;9492;51.888;5.186;2022-12-31T11:59:45;2.77;;;1.03;;
18726;SDS011;9492;51.888;5.186;2022-12-31T12:04:43;5.13;;;1.33;;
18726;SDS011;9492;51.888;5.186;2022-12-31T12:07:12;3.20;;;1.30;;
18726;SDS011;9492;51.888;5.186;2022-12-31T12:09:40;1.77;;;1.17;;
18726;SDS011;9492;51.888;5.186;2022-12-31T12:12:08;2.93;;;1.50;;
18726;SDS011;9492;51.888;5.186;2022-12-31T12:17:28;5.13;;;1.73;;
18726;SDS011;9492;51.888;5.186;2022-12-31T12:19:56;3.97;;;1.70;;
18726;SDS011;9492;51.888;5.186;2022-12-31T12:22:27;5.30;;;2.10;;
18726;SDS011;9492;51.888;5.186;2022-12-31T12:24:56;4.87;;;1.57;;
18726;SDS011;9492;51.888;5.186;2022-12-31T12:27:27;5.90;;;1.63;;
18726;SDS011;9492;51.888;5.186;2022-12-31T12:29:53;3.73;;;1.50;;
18726;SDS011;9492;51.888;5.186;2022-12-31T12:32:28;3.60;;;1.40;;
18726;SDS011;9492;51.888;5.186;2022-12-31T12:34:54;5.47;;;1.73;;
18726;SDS011;9492;51.888;5.186;2022-12-31T12:42:22;5.93;;;1.80;;
18726;SDS011;9492;51.888;5.186;2022-12-31T12:45:12;5.57;;;1.70;;
18726;SDS011;9492;51.888;5.186;2022-12-31T12:47:40;3.33;;;1.70;;
18726;SDS011;9492;51.888;5.186;2022-12-31T12:50:13;4.73;;;1.70;;
18726;SDS011;9492;51.888;5.186;2022-12-31T12:52:44;5.53;;;1.60;;
18726;SDS011;9492;51.888;5.186;2022-12-31T12:55:32;5.93;;;2.10;;
18726;SDS011;9492;51.888;5.186;2022-12-31T13:25:02;2.70;;;1.50;;
18726;SDS011;9492;51.888;5.186;2022-12-31T13:27:41;7.30;;;1.93;;
18726;SDS011;9492;51.888;5.186;2022-12-31T13:30:13;5.93;;;2.13;;
18726;SDS011;9492;51.888;5.186;2022-12-31T13:32:41;2.67;;;1.40;;
18726;SDS011;9492;51.888;5.186;2022-12-31T13:37:42;3.50;;;1.70;;
18726;SDS011;9492;51.888;5.186;2022-12-31T13:45:59;3.53;;;1.67;;
18726;SDS011;9492;51.888;5.186;2022-12-31T13:48:30;4.03;;;1.43;;
18726;SDS011;9492;51.888;5.186;2022-12-31T13:51:02;5.17;;;1.77;;
18726;SDS011;9492;51.888;5.186;2022-12-31T13:56:25;6.43;;;2.07;;
18726;SDS011;9492;51.888;5.186;2022-12-31T13:59:35;4.83;;;2.00;;
18726;SDS011;9492;51.888;5.186;2022-12-31T14:04:26;5.30;;;1.50;;
18726;SDS011;9492;51.888;5.186;2022-12-31T14:09:57;3.43;;;1.70;;
18726;SDS011;9492;51.888;5.186;2022-12-31T14:15:12;5.50;;;1.70;;
18726;SDS011;9492;51.888;5.186;2022-12-31T14:17:47;5.87;;;1.50;;
18726;SDS011;9492;51.888;5.186;2022-12-31T14:22:59;5.30;;;1.67;;
18726;SDS011;9492;51.888;5.186;2022-12-31T14:25:35;3.97;;;1.90;;
18726;SDS011;9492;51.888;5.186;2022-12-31T14:28:04;5.27;;;1.73;;
18726;SDS011;9492;51.888;5.186;2022-12-31T14:30:35;7.10;;;1.77;;
18726;SDS011;9492;51.888;5.186;2022-12-31T14:41:05;6.10;;;2.23;;
18726;SDS011;9492;51.888;5.186;2022-12-31T14:43:48;8.47;;;2.23;;
18726;SDS011;9492;51.888;5.186;2022-12-31T14:51:14;6.63;;;2.33;;
18726;SDS011;9492;51.888;5.186;2022-12-31T14:53:49;9.03;;;2.70;;
18726;SDS011;9492;51.888;5.186;2022-12-31T14:59:02;7.03;;;2.10;;
18726;SDS011;9492;51.888;5.186;2022-12-31T15:01:31;9.63;;;2.90;;
18726;SDS011;9492;51.888;5.186;2022-12-31T15:24:33;14.67;;;3.30;;
18726;SDS011;9492;51.888;5.186;2022-12-31T15:27:05;11.40;;;3.70;;
18726;SDS011;9492;51.888;5.186;2022-12-31T15:29:35;7.43;;;3.27;;
18726;SDS011;9492;51.888;5.186;2022-12-31T15:32:03;5.20;;;2.10;;
18726;SDS011;9492;51.888;5.186;2022-12-31T15:34:31;10.97;;;2.50;;
18726;SDS011;9492;51.888;5.186;2022-12-31T15:37:00;9.77;;;2.87;;
18726;SDS011;9492;51.888;5.186;2022-12-31T15:41:58;10.00;;;3.40;;
18726;SDS011;9492;51.888;5.186;2022-12-31T15:44:44;8.27;;;3.70;;
18726;SDS011;9492;51.888;5.186;2022-12-31T15:47:26;6.57;;;2.60;;
18726;SDS011;9492;51.888;5.186;2022-12-31T15:49:53;7.80;;;3.23;;
18726;SDS011;9492;51.888;5.186;2022-12-31T15:52:25;7.37;;;2.80;;
18726;SDS011;9492;51.888;5.186;2022-12-31T15:54:55;7.50;;;2.87;;
18726;SDS011;9492;51.888;5.186;2022-12-31T15:57:29;7.80;;;3.37;;
18726;SDS011;9492;51.888;5.186;2022-12-31T15:59:56;6.60;;;3.23;;
18726;SDS011;9492;51.888;5.186;2022-12-31T16:02:25;8.20;;;2.80;;
18726;SDS011;9492;51.888;5.186;2022-12-31T16:04:51;9.43;;;3.30;;
18726;SDS011;9492;51.888;5.186;2022-12-31T16:07:18;7.10;;;3.10;;
18726;SDS011;9492;51.888;5.186;2022-12-31T16:09:53;7.80;;;3.20;;
18726;SDS011;9492;51.888;5.186;2022-12-31T16:12:27;7.83;;;3.23;;
18726;SDS011;9492;51.888;5.186;2022-12-31T16:14:54;7.43;;;2.80;;
18726;SDS011;9492;51.888;5.186;2022-12-31T16:19:52;6.53;;;3.47;;
18726;SDS011;9492;51.888;5.186;2022-12-31T16:22:26;10.23;;;2.87;;
18726;SDS011;9492;51.888;5.186;2022-12-31T16:24:53;4.60;;;2.43;;
18726;SDS011;9492;51.888;5.186;2022-12-31T16:27:20;12.07;;;3.50;;
18726;SDS011;9492;51.888;5.186;2022-12-31T16:29:47;8.20;;;2.80;;
18726;SDS011;9492;51.888;5.186;2022-12-31T16:32:17;10.27;;;3.60;;
18726;SDS011;9492;51.888;5.186;2022-12-31T16:34:44;10.43;;;4.13;;
18726;SDS011;9492;51.888;5.186;2022-12-31T16:37:14;10.27;;;3.13;;
18726;SDS011;9492;51.888;5.186;2022-12-31T16:40:06;5.73;;;2.63;;
18726;SDS011;9492;51.888;5.186;2022-12-31T16:42:27;5.70;;;2.90;;
18726;SDS011;9492;51.888;5.186;2022-12-31T16:44:55;19.67;;;11.30;;
18726;SDS011;9492;51.888;5.186;2022-12-31T16:47:31;8.83;;;4.70;;
18726;SDS011;9492;51.888;5.186;2022-12-31T16:50:00;11.03;;;5.60;;
18726;SDS011;9492;51.888;5.186;2022-12-31T16:52:41;10.00;;;4.67;;
18726;SDS011;9492;51.888;5.186;2022-12-31T16:55:29;8.47;;;3.70;;
18726;SDS011;9492;51.888;5.186;2022-12-31T16:57:59;5.67;;;3.77;;
18726;SDS011;9492;51.888;5.186;2022-12-31T17:00:36;9.77;;;4.87;;
18726;SDS011;9492;51.888;5.186;2022-12-31T17:03:09;13.80;;;5.03;;
18726;SDS011;9492;51.888;5.186;2022-12-31T17:05:53;7.40;;;3.70;;
18726;SDS011;9492;51.888;5.186;2022-12-31T17:08:27;7.90;;;3.60;;
18726;SDS011;9492;51.888;5.186;2022-12-31T17:10:54;8.53;;;3.53;;
18726;SDS011;9492;51.888;5.186;2022-12-31T17:13:30;10.80;;;6.07;;
18726;SDS011;9492;51.888;5.186;2022-12-31T17:15:57;14.90;;;5.03;;
18726;SDS011;9492;51.888;5.186;2022-12-31T17:18:25;8.53;;;4.10;;
18726;SDS011;9492;51.888;5.186;2022-12-31T17:20:53;12.40;;;5.03;;
18726;SDS011;9492;51.888;5.186;2022-12-31T17:23:22;8.97;;;4.73;;
18726;SDS011;9492;51.888;5.186;2022-12-31T17:25:49;13.43;;;4.50;;
18726;SDS011;9492;51.888;5.186;2022-12-31T17:28:22;5.53;;;3.40;;
18726;SDS011;9492;51.888;5.186;2022-12-31T17:30:49;11.13;;;4.13;;
18726;SDS011;9492;51.888;5.186;2022-12-31T17:35:56;8.93;;;4.20;;
18726;SDS011;9492;51.888;5.186;2022-12-31T17:40:51;11.07;;;3.60;;
18726;SDS011;9492;51.888;5.186;2022-12-31T17:43:18;7.53;;;3.87;;
18726;SDS011;9492;51.888;5.186;2022-12-31T17:45:45;7.97;;;4.30;;
18726;SDS011;9492;51.888;5.186;2022-12-31T17:48:13;6.97;;;3.60;;
18726;SDS011;9492;51.888;5.186;2022-12-31T17:50:47;7.97;;;4.70;;
18726;SDS011;9492;51.888;5.186;2022-12-31T17:53:16;7.57;;;3.90;;
18726;SDS011;9492;51.888;5.186;2022-12-31T17:55:44;16.80;;;10.37;;
18726;SDS011;9492;51.888;5.186;2022-12-31T17:58:26;14.47;;;6.27;;
18726;SDS011;9492;51.888;5.186;2022-12-31T18:00:53;7.90;;;4.73;;
18726;SDS011;9492;51.888;5.186;2022-12-31T18:03:19;10.67;;;5.20;;
18726;SDS011;9492;51.888;5.186;2022-12-31T18:08:14;9.80;;;4.30;;
18726;SDS011;9492;51.888;5.186;2022-12-31T18:10:41;10.33;;;4.90;;
18726;SDS011;9492;51.888;5.186;2022-12-31T18:13:15;8.23;;;5.30;;
18726;SDS011;9492;51.888;5.186;2022-12-31T18:15:42;7.57;;;4.43;;
18726;SDS011;9492;51.888;5.186;2022-12-31T18:20:40;8.40;;;3.43;;
18726;SDS011;9492;51.888;5.186;2022-12-31T18:23:10;9.13;;;3.97;;
18726;SDS011;9492;51.888;5.186;2022-12-31T18:25:39;9.07;;;3.73;;
18726;SDS011;9492;51.888;5.186;2022-12-31T18:28:07;13.90;;;3.30;;
18726;SDS011;9492;51.888;5.186;2022-12-31T18:30:34;6.10;;;2.80;;
18726;SDS011;9492;51.888;5.186;2022-12-31T18:33:00;9.00;;;4.63;;
18726;SDS011;9492;51.888;5.186;2022-12-31T18:35:26;8.43;;;4.07;;
18726;SDS011;9492;51.888;5.186;2022-12-31T18:37:52;7.63;;;3.10;;
18726;SDS011;9492;51.888;5.186;2022-12-31T18:40:18;5.97;;;2.40;;
18726;SDS011;9492;51.888;5.186;2022-12-31T18:42:44;8.43;;;3.10;;
18726;SDS011;9492;51.888;5.186;2022-12-31T18:45:14;7.33;;;3.20;;
18726;SDS011;9492;51.888;5.186;2022-12-31T18:47:40;4.53;;;2.67;;
18726;SDS011;9492;51.888;5.186;2022-12-31T18:50:06;5.13;;;2.40;;
18726;SDS011;9492;51.888;5.186;2022-12-31T18:52:32;7.67;;;3.10;;
18726;SDS011;9492;51.888;5.186;2022-12-31T18:54:58;8.23;;;3.37;;
18726;SDS011;9492;51.888;5.186;2022-12-31T18:57:24;4.40;;;2.67;;
18726;SDS011;9492;51.888;5.186;2022-12-31T18:59:50;6.40;;;2.90;;
18726;SDS011;9492;51.888;5.186;2022-12-31T19:02:17;7.93;;;3.17;;
18726;SDS011;9492;51.888;5.186;2022-12-31T19:04:43;6.90;;;2.30;;
18726;SDS011;9492;51.888;5.186;2022-12-31T19:07:09;5.60;;;3.43;;
18726;SDS011;9492;51.888;5.186;2022-12-31T19:09:36;7.93;;;3.83;;
18726;SDS011;9492;51.888;5.186;2022-12-31T19:12:02;12.60;;;4.33;;
18726;SDS011;9492;51.888;5.186;2022-12-31T19:14:29;6.97;;;3.47;;
18726;SDS011;9492;51.888;5.186;2022-12-31T19:16:55;11.50;;;4.83;;
18726;SDS011;9492;51.888;5.186;2022-12-31T19:19:22;10.27;;;4.23;;
18726;SDS011;9492;51.888;5.186;2022-12-31T19:21:48;10.97;;;3.40;;
18726;SDS011;9492;51.888;5.186;2022-12-31T19:24:16;54.53;;;28.17;;
18726;SDS011;9492;51.888;5.186;2022-12-31T19:26:43;68.10;;;41.80;;
18726;SDS011;9492;51.888;5.186;2022-12-31T19:29:19;13.40;;;5.23;;
18726;SDS011;9492;51.888;5.186;2022-12-31T19:31:45;5.33;;;3.50;;
18726;SDS011;9492;51.888;5.186;2022-12-31T19:34:11;8.90;;;3.70;;
18726;SDS011;9492;51.888;5.186;2022-12-31T19:36:40;27.17;;;20.53;;
18726;SDS011;9492;51.888;5.186;2022-12-31T19:39:09;30.27;;;16.87;;
18726;SDS011;9492;51.888;5.186;2022-12-31T19:41:37;31.57;;;18.60;;
18726;SDS011;9492;51.888;5.186;2022-12-31T19:44:03;17.97;;;11.77;;
18726;SDS011;9492;51.888;5.186;2022-12-31T19:49:00;15.33;;;4.20;;
18726;SDS011;9492;51.888;5.186;2022-12-31T19:51:26;16.07;;;4.27;;
18726;SDS011;9492;51.888;5.186;2022-12-31T19:53:53;9.70;;;4.00;;
18726;SDS011;9492;51.888;5.186;2022-12-31T19:56:19;10.60;;;3.93;;
18726;SDS011;9492;51.888;5.186;2022-12-31T19:58:45;8.53;;;3.57;;
18726;SDS011;9492;51.888;5.186;2022-12-31T20:01:16;9.53;;;4.23;;
18726;SDS011;9492;51.888;5.186;2022-12-31T20:03:44;8.53;;;3.90;;
18726;SDS011;9492;51.888;5.186;2022-12-31T20:06:11;10.00;;;4.20;;
18726;SDS011;9492;51.888;5.186;2022-12-31T20:08:37;10.97;;;3.87;;
18726;SDS011;9492;51.888;5.186;2022-12-31T20:11:07;8.97;;;4.17;;
18726;SDS011;9492;51.888;5.186;2022-12-31T20:13:34;11.20;;;4.50;;
18726;SDS011;9492;51.888;5.186;2022-12-31T20:16:00;11.37;;;5.10;;
18726;SDS011;9492;51.888;5.186;2022-12-31T20:18:26;17.77;;;6.57;;
18726;SDS011;9492;51.888;5.186;2022-12-31T20:20:58;13.63;;;6.20;;
18726;SDS011;9492;51.888;5.186;2022-12-31T20:23:24;16.13;;;6.83;;
18726;SDS011;9492;51.888;5.186;2022-12-31T20:25:57;14.50;;;7.00;;
18726;SDS011;9492;51.888;5.186;2022-12-31T20:28:23;14.93;;;5.80;;
18726;SDS011;9492;51.888;5.186;2022-12-31T20:30:49;9.80;;;4.90;;
18726;SDS011;9492;51.888;5.186;2022-12-31T20:33:15;7.97;;;3.50;;
18726;SDS011;9492;51.888;5.186;2022-12-31T20:35:41;11.47;;;4.03;;
18726;SDS011;9492;51.888;5.186;2022-12-31T20:38:07;15.27;;;4.73;;
18726;SDS011;9492;51.888;5.186;2022-12-31T20:40:33;8.47;;;3.63;;
18726;SDS011;9492;51.888;5.186;2022-12-31T20:42:59;11.53;;;4.13;;
18726;SDS011;9492;51.888;5.186;2022-12-31T20:45:25;14.07;;;6.87;;
18726;SDS011;9492;51.888;5.186;2022-12-31T20:47:51;14.40;;;5.30;;
18726;SDS011;9492;51.888;5.186;2022-12-31T20:50:17;17.57;;;4.90;;
18726;SDS011;9492;51.888;5.186;2022-12-31T20:52:43;13.50;;;4.50;;
18726;SDS011;9492;51.888;5.186;2022-12-31T20:55:10;11.63;;;4.00;;
18726;SDS011;9492;51.888;5.186;2022-12-31T20:57:38;10.30;;;4.20;;
18726;SDS011;9492;51.888;5.186;2022-12-31T21:00:04;11.40;;;4.83;;
18726;SDS011;9492;51.888;5.186;2022-12-31T21:02:30;10.57;;;4.47;;
18726;SDS011;9492;51.888;5.186;2022-12-31T21:04:59;11.83;;;3.93;;
18726;SDS011;9492;51.888;5.186;2022-12-31T21:07:25;10.77;;;3.10;;
18726;SDS011;9492;51.888;5.186;2022-12-31T21:09:51;10.53;;;4.10;;
18726;SDS011;9492;51.888;5.186;2022-12-31T21:12:17;9.03;;;3.43;;
18726;SDS011;9492;51.888;5.186;2022-12-31T21:15:01;7.93;;;3.40;;
18726;SDS011;9492;51.888;5.186;2022-12-31T21:17:28;10.90;;;3.97;;
18726;SDS011;9492;51.888;5.186;2022-12-31T21:19:55;11.03;;;4.00;;
18726;SDS011;9492;51.888;5.186;2022-12-31T21:22:21;6.97;;;3.70;;
18726;SDS011;9492;51.888;5.186;2022-12-31T21:24:48;9.87;;;4.00;;
18726;SDS011;9492;51.888;5.186;2022-12-31T21:27:14;9.33;;;3.53;;
18726;SDS011;9492;51.888;5.186;2022-12-31T21:29:40;7.67;;;3.80;;